Time;durP1;ratioP1;P1;durP2;ratioP2;P2;SDS_P1;SDS_P2;PMS_P1;PMS_P2;Temp;Humidity;BMP_temperature;BMP_pressure;BME280_temperature;BME280_humidity;BME280_pressure;Samples;Min_cycle;Max_cycle;Signal;HPM_P1;HPM_P2
2023/07/23 00:00:33;;;;;;;3.60;3.10;;;;;;;26.92;59.62;101280.90;107110;1263;25485;-51
2023/07/23 00:03:00;;;;;;;4.90;3.20;;;;;;;26.91;59.25;101275.98;106849;1267;25397;-50
2023/07/23 00:05:29;;;;;;;4.60;3.00;;;;;;;26.92;59.28;101278.60;107071;1263;25364;-51
2023/07/23 00:07:57;;;;;;;3.50;3.20;;;;;;;26.91;59.02;101275.64;107091;1251;25411;-50
2023/07/23 00:10:24;;;;;;;3.00;2.70;;;;;;;26.89;58.59;101276.90;107098;1262;24210;-51
2023/07/23 00:12:52;;;;;;;4.40;3.00;;;;;;;26.87;58.38;101271.71;107144;1254;25324;-50
2023/07/23 00:15:19;;;;;;;3.40;3.10;;;;;;;26.85;58.24;101260.47;107093;1267;25335;-50
2023/07/23 00:17:45;;;;;;;4.20;3.00;;;;;;;26.82;58.07;101258.94;107148;1256;22537;-50
2023/07/23 00:20:12;;;;;;;3.10;2.90;;;;;;;26.78;58.09;101253.25;107031;1261;25399;-50
2023/07/23 00:22:40;;;;;;;3.30;3.00;;;;;;;26.74;58.35;101258.35;107065;1260;25383;-50
2023/07/23 00:25:08;;;;;;;3.30;3.00;;;;;;;26.69;58.60;101256.25;107172;1265;25363;-50
2023/07/23 00:27:35;;;;;;;4.60;3.10;;;;;;;26.65;58.79;101261.77;107147;1262;25351;-50
2023/07/23 00:30:03;;;;;;;4.00;3.10;;;;;;;26.63;59.08;101264.05;107042;1260;25485;-50
2023/07/23 00:32:31;;;;;;;3.60;3.30;;;;;;;26.63;59.15;101265.77;106873;1255;25291;-50
2023/07/23 00:34:58;;;;;;;5.60;3.20;;;;;;;26.63;58.99;101263.11;107091;1265;25476;-50
2023/07/23 00:37:27;;;;;;;3.60;3.20;;;;;;;26.61;58.65;101260.44;106727;1267;22652;-50
2023/07/23 00:39:55;;;;;;;3.70;3.00;;;;;;;26.59;58.48;101263.62;106741;1265;24220;-50
2023/07/23 00:42:23;;;;;;;4.20;3.00;;;;;;;26.54;58.16;101267.29;106700;1266;25428;-50
2023/07/23 00:44:50;;;;;;;3.50;3.10;;;;;;;26.47;58.21;101266.08;106720;1268;25552;-50
2023/07/23 00:47:17;;;;;;;4.00;3.30;;;;;;;26.41;58.21;101268.50;106627;1256;25490;-50
2023/07/23 00:49:44;;;;;;;4.10;3.50;;;;;;;26.37;58.10;101267.21;106514;1271;25417;-50
2023/07/23 00:52:12;;;;;;;3.40;3.10;;;;;;;26.36;58.33;101274.98;106725;1262;25410;-49
2023/07/23 00:54:39;;;;;;;3.70;3.20;;;;;;;26.37;58.31;101278.25;106628;1259;22533;-50
2023/07/23 00:57:08;;;;;;;3.70;3.20;;;;;;;26.38;58.12;101280.09;106724;1268;25336;-50
2023/07/23 00:59:34;;;;;;;3.50;3.10;;;;;;;26.39;57.94;101283.96;106462;1267;22677;-49
2023/07/23 01:02:02;;;;;;;4.60;4.20;;;;;;;26.40;57.78;101289.20;106713;1274;25346;-50
2023/07/23 01:04:29;;;;;;;3.40;3.10;;;;;;;26.41;57.55;101294.64;106819;1266;25351;-49
2023/07/23 01:06:57;;;;;;;3.80;3.40;;;;;;;26.42;57.46;101304.52;106752;1261;25335;-49
2023/07/23 01:09:26;;;;;;;3.40;3.10;;;;;;;26.43;57.20;101306.44;106848;1259;22663;-50
2023/07/23 01:11:53;;;;;;;3.50;3.20;;;;;;;26.43;57.18;101307.45;106872;1268;25350;-49
2023/07/23 01:14:22;;;;;;;4.30;3.90;;;;;;;26.43;57.14;101313.34;107019;1262;23322;-50
2023/07/23 01:16:49;;;;;;;4.00;3.60;;;;;;;26.42;57.28;101325.14;107104;1267;23421;-49
2023/07/23 01:19:16;;;;;;;3.80;3.50;;;;;;;26.41;57.18;101330.20;106979;1254;25406;-50
2023/07/23 01:21:43;;;;;;;3.50;3.20;;;;;;;26.41;57.23;101334.88;107093;1254;25362;-50
2023/07/23 01:24:10;;;;;;;3.80;3.50;;;;;;;26.39;57.20;101341.09;106905;1266;25484;-50
2023/07/23 01:26:37;;;;;;;4.80;3.50;;;;;;;26.38;57.39;101348.45;107018;1260;25325;-50
2023/07/23 01:29:04;;;;;;;4.40;4.00;;;;;;;26.36;57.46;101352.00;107001;1259;25785;-50
2023/07/23 01:31:31;;;;;;;3.60;3.30;;;;;;;26.35;57.48;101354.40;106986;1264;25392;-50
2023/07/23 01:34:04;;;;;;;4.00;3.50;;;;;;;26.33;57.54;101356.48;106825;1268;25373;-50
2023/07/23 01:36:31;;;;;;;3.80;3.50;;;;;;;26.31;57.64;101359.15;106956;1256;22646;-50
2023/07/23 01:38:58;;;;;;;3.90;3.60;;;;;;;26.28;57.88;101353.84;107078;1266;25315;-50
2023/07/23 01:41:25;;;;;;;4.20;3.80;;;;;;;26.26;57.98;101352.55;106710;1270;25508;-49
2023/07/23 01:43:52;;;;;;;7.70;3.80;;;;;;;26.24;58.05;101355.05;106825;1263;24183;-49
2023/07/23 01:46:19;;;;;;;5.00;3.70;;;;;;;26.22;58.31;101357.88;107016;1261;25481;-50
2023/07/23 01:48:46;;;;;;;7.00;4.10;;;;;;;26.20;58.27;101361.41;107089;1258;25359;-50
2023/07/23 01:51:13;;;;;;;4.00;3.50;;;;;;;26.18;58.43;101362.79;107058;1266;25354;-50
2023/07/23 01:53:40;;;;;;;4.00;3.60;;;;;;;26.16;58.46;101367.63;107210;1259;25383;-50
2023/07/23 01:56:07;;;;;;;10.90;6.10;;;;;;;26.14;58.71;101371.85;106872;1267;25335;-50
2023/07/23 01:58:34;;;;;;;5.40;4.20;;;;;;;26.12;58.99;101367.23;106864;1262;22538;-50
2023/07/23 02:01:01;;;;;;;4.20;3.80;;;;;;;26.09;59.29;101361.37;106892;1265;25513;-49
2023/07/23 02:03:29;;;;;;;4.80;4.30;;;;;;;26.05;59.49;101360.41;107077;1259;22530;-49
2023/07/23 02:06:00;;;;;;;4.00;3.60;;;;;;;26.03;59.48;101362.36;107148;1264;25336;-49
2023/07/23 02:08:28;;;;;;;3.90;3.60;;;;;;;26.02;59.43;101366.39;106900;1263;22534;-50
2023/07/23 02:11:01;;;;;;;3.60;3.30;;;;;;;25.99;59.54;101363.54;106929;1261;22557;-49
2023/07/23 02:13:29;;;;;;;4.30;3.80;;;;;;;25.96;59.41;101358.63;106924;1265;25450;-50
2023/07/23 02:15:56;;;;;;;4.20;3.70;;;;;;;25.93;59.44;101354.23;106848;1263;25395;-49
2023/07/23 02:18:23;;;;;;;3.90;3.50;;;;;;;25.91;59.28;101356.21;106815;1266;25402;-50
2023/07/23 02:20:50;;;;;;;4.20;3.80;;;;;;;25.87;59.24;101360.25;106466;1271;25415;-50
2023/07/23 02:23:17;;;;;;;4.40;3.70;;;;;;;25.83;59.37;101353.04;106874;1264;25451;-50
2023/07/23 02:25:48;;;;;;;4.60;3.40;;;;;;;25.81;59.33;101354.80;106924;1268;25328;-50
2023/07/23 02:28:15;;;;;;;;;;;;;;;25.79;59.33;101347.65;107121;1268;23343;-49
2023/07/23 02:30:42;;;;;;;3.80;3.40;;;;;;;25.79;59.24;101345.38;107072;1264;25315;-50
2023/07/23 02:33:09;;;;;;;4.00;3.50;;;;;;;25.76;59.23;101345.89;107113;1262;25506;-50
2023/07/23 02:35:37;;;;;;;3.90;3.50;;;;;;;25.76;59.22;101348.75;106856;1271;25400;-50
2023/07/23 02:38:06;;;;;;;4.20;3.80;;;;;;;25.77;59.14;101352.41;107057;1266;25353;-50
2023/07/23 02:40:33;;;;;;;4.70;3.70;;;;;;;25.80;58.99;101365.31;106817;1268;25660;-50
2023/07/23 02:43:01;;;;;;;4.90;4.50;;;;;;;25.83;58.69;101370.11;107072;1262;25331;-50
2023/07/23 02:45:31;;;;;;;4.80;3.70;;;;;;;25.84;58.49;101366.79;107026;1267;25378;-50
2023/07/23 02:47:58;;;;;;;4.20;3.90;;;;;;;25.75;58.88;101367.70;107014;1266;25392;-50
2023/07/23 02:50:25;;;;;;;5.10;3.70;;;;;;;25.69;58.88;101370.77;106805;1273;25321;-49
2023/07/23 02:52:55;;;;;;;5.30;4.00;;;;;;;25.69;58.84;101377.19;106756;1275;25476;-50
2023/07/23 02:55:24;;;;;;;4.30;3.90;;;;;;;25.69;58.96;101385.94;106816;1260;25431;-50
2023/07/23 02:57:53;;;;;;;4.60;3.60;;;;;;;25.69;58.99;101392.30;106504;1272;25482;-50
2023/07/23 03:00:20;;;;;;;6.90;3.70;;;;;;;25.70;58.97;101400.44;106463;1272;25346;-50
2023/07/23 03:02:47;;;;;;;4.40;4.00;;;;;;;25.70;59.02;101412.15;106558;1273;25509;-50
2023/07/23 03:05:15;;;;;;;3.90;3.60;;;;;;;25.70;58.79;101414.10;106755;1269;25402;-50
2023/07/23 03:07:42;;;;;;;3.90;3.60;;;;;;;25.68;58.51;101412.12;106658;1269;25423;-50
2023/07/23 03:10:09;;;;;;;4.00;3.70;;;;;;;25.65;58.48;101410.60;106759;1269;25337;-50
2023/07/23 03:12:36;;;;;;;3.80;3.40;;;;;;;25.62;58.68;101412.72;106812;1269;25412;-49
2023/07/23 03:15:05;;;;;;;4.10;3.70;;;;;;;25.59;58.57;101408.31;106790;1266;25428;-50
2023/07/23 03:17:33;;;;;;;4.10;3.70;;;;;;;25.57;58.58;101410.10;106767;1268;25339;-50
2023/07/23 03:20:00;;;;;;;4.10;3.80;;;;;;;25.56;58.21;101408.03;106803;1267;25360;-50
2023/07/23 03:22:27;;;;;;;4.30;3.90;;;;;;;25.54;57.61;101410.84;106633;1272;25596;-50
2023/07/23 03:24:53;;;;;;;4.30;3.90;;;;;;;25.55;57.57;101415.08;106569;1263;25520;-50
2023/07/23 03:27:23;;;;;;;4.00;3.70;;;;;;;25.57;57.40;101418.97;106488;1271;25367;-50
2023/07/23 03:29:49;;;;;;;4.10;3.60;;;;;;;25.60;57.33;101425.50;106809;1267;25380;-50
2023/07/23 03:32:17;;;;;;;4.30;3.90;;;;;;;25.64;57.15;101426.66;107025;1256;25383;-50
2023/07/23 03:34:44;;;;;;;4.80;3.80;;;;;;;25.69;57.33;101426.23;107087;1265;25339;-50
2023/07/23 03:37:11;;;;;;;4.00;3.70;;;;;;;25.75;57.47;101420.48;107027;1265;22549;-50
2023/07/23 03:39:38;;;;;;;3.90;3.60;;;;;;;25.81;57.37;101427.86;107209;1265;25385;-50
2023/07/23 03:42:06;;;;;;;4.10;3.70;;;;;;;25.91;57.65;101430.67;107061;1266;25300;-50
2023/07/23 03:44:33;;;;;;;4.10;3.80;;;;;;;26.05;57.63;101435.17;106916;1267;22526;-50
2023/07/23 03:47:18;;;;;;;4.00;3.70;;;;;;;26.17;57.22;101435.95;107054;1263;25412;-50
2023/07/23 03:49:46;;;;;;;5.40;4.10;;;;;;;26.29;56.10;101431.52;107125;1257;25504;-50
2023/07/23 03:52:13;;;;;;;4.20;3.80;;;;;;;26.39;55.75;101427.88;106872;1268;25366;-50
2023/07/23 03:54:42;;;;;;;5.80;3.80;;;;;;;26.58;55.71;101419.65;107075;1258;25338;-50
2023/07/23 03:57:09;;;;;;;4.40;4.00;;;;;;;26.88;55.10;101416.73;107060;1262;25477;-50
2023/07/23 03:59:41;;;;;;;4.30;4.00;;;;;;;27.23;54.57;101421.01;106794;1259;25335;-50
2023/07/23 04:02:08;;;;;;;4.60;4.10;;;;;;;27.57;53.99;101423.20;106945;1267;22961;-50
2023/07/23 04:04:36;;;;;;;4.20;3.80;;;;;;;27.81;52.60;101423.02;107023;1256;25353;-49
2023/07/23 04:07:04;;;;;;;3.70;3.40;;;;;;;27.93;51.46;101430.20;106836;1257;25412;-50
2023/07/23 04:09:30;;;;;;;4.10;3.80;;;;;;;27.95;51.04;101427.01;106866;1268;25328;-49
2023/07/23 04:11:57;;;;;;;4.20;3.90;;;;;;;27.91;51.22;101421.29;107117;1265;25353;-49
2023/07/23 04:14:24;;;;;;;4.30;3.90;;;;;;;27.83;51.21;101414.66;107175;1265;25415;-49
2023/07/23 04:16:52;;;;;;;4.30;4.00;;;;;;;27.70;51.19;101412.88;107115;1262;24194;-50
2023/07/23 04:19:22;;;;;;;4.40;4.00;;;;;;;27.57;51.41;101419.66;106937;1267;25412;-50
2023/07/23 04:21:49;;;;;;;4.80;4.40;;;;;;;27.43;51.62;101425.62;107107;1269;24254;-50
2023/07/23 04:24:20;;;;;;;4.30;4.00;;;;;;;27.32;51.84;101424.35;107139;1269;25336;-50
2023/07/23 04:26:47;;;;;;;4.30;4.00;;;;;;;27.21;52.09;101426.84;107093;1254;26214;-50
2023/07/23 04:29:14;;;;;;;4.10;3.80;;;;;;;27.09;52.50;101434.05;106846;1266;23209;-50
2023/07/23 04:31:41;;;;;;;4.70;4.30;;;;;;;26.98;52.76;101433.88;107158;1259;23224;-49
2023/07/23 04:34:08;;;;;;;4.60;4.20;;;;;;;26.88;52.99;101435.98;107045;1262;22760;-50
2023/07/23 04:36:36;;;;;;;5.30;4.50;;;;;;;26.80;52.92;101431.94;106904;1258;22624;-49
2023/07/23 04:39:03;;;;;;;4.30;3.90;;;;;;;26.72;52.80;101432.20;107072;1267;25335;-49
2023/07/23 04:41:31;;;;;;;4.50;4.10;;;;;;;26.65;53.06;101429.02;107025;1267;25367;-50
2023/07/23 04:43:58;;;;;;;5.30;4.80;;;;;;;26.60;53.35;101430.17;106786;1268;25336;-50
2023/07/23 04:46:24;;;;;;;4.80;4.40;;;;;;;26.54;53.57;101427.72;106771;1268;25327;-50
2023/07/23 04:48:51;;;;;;;5.70;4.00;;;;;;;26.50;53.54;101436.94;106671;1260;25386;-50
2023/07/23 04:51:18;;;;;;;4.90;4.20;;;;;;;26.46;53.66;101438.69;107118;1268;25339;-50
2023/07/23 04:53:45;;;;;;;4.80;4.40;;;;;;;26.44;53.73;101442.08;107067;1259;25335;-50
2023/07/23 04:56:12;;;;;;;5.10;4.70;;;;;;;26.42;53.83;101449.54;107071;1256;25331;-49
2023/07/23 04:58:39;;;;;;;5.10;4.70;;;;;;;26.39;53.52;101452.10;107054;1265;25328;-50
2023/07/23 05:01:08;;;;;;;4.20;3.90;;;;;;;26.35;53.65;101452.38;107043;1264;25333;-49
2023/07/23 05:03:36;;;;;;;4.50;4.10;;;;;;;26.33;53.93;101454.14;107076;1265;25347;-49
2023/07/23 05:06:04;;;;;;;5.50;3.90;;;;;;;26.33;54.34;101461.64;107113;1265;22527;-50
2023/07/23 05:08:32;;;;;;;4.40;4.10;;;;;;;26.32;54.01;101460.42;107032;1256;25414;-49
2023/07/23 05:11:03;;;;;;;5.10;4.60;;;;;;;26.32;53.96;101463.11;107081;1265;25364;-49
2023/07/23 05:13:33;;;;;;;5.70;4.30;;;;;;;26.34;54.04;101469.16;106808;1259;25364;-50
2023/07/23 05:16:02;;;;;;;4.00;3.70;;;;;;;26.38;53.82;101472.43;106842;1267;22527;-50
2023/07/23 05:18:30;;;;;;;4.90;4.50;;;;;;;26.48;53.66;101472.36;107228;1262;24240;-50
2023/07/23 05:20:57;;;;;;;4.50;3.90;;;;;;;26.66;53.43;101471.33;107138;1256;25357;-50
2023/07/23 05:23:24;;;;;;;4.40;4.00;;;;;;;26.87;52.57;101471.25;107057;1259;25385;-50
2023/07/23 05:25:50;;;;;;;4.50;4.20;;;;;;;27.14;52.33;101466.46;107069;1263;25373;-49
2023/07/23 05:28:19;;;;;;;4.20;3.90;;;;;;;27.43;51.64;101461.25;107015;1265;25469;-50
2023/07/23 05:30:46;;;;;;;4.40;4.00;;;;;;;27.66;50.55;101453.69;106781;1270;25424;-50
2023/07/23 05:33:13;;;;;;;4.80;4.40;;;;;;;27.83;50.50;101453.36;106684;1265;25405;-50
2023/07/23 05:35:40;;;;;;;5.60;4.30;;;;;;;27.97;50.36;101454.79;107060;1251;25485;-50
2023/07/23 05:38:06;;;;;;;4.70;4.30;;;;;;;28.10;50.06;101459.93;107103;1263;25343;-49
2023/07/23 05:40:36;;;;;;;5.00;3.80;;;;;;;28.24;49.96;101467.93;107057;1265;25481;-50
2023/07/23 05:43:08;;;;;;;4.50;4.10;;;;;;;28.39;49.50;101474.41;106850;1273;25392;-50
2023/07/23 05:45:36;;;;;;;4.30;4.00;;;;;;;28.57;49.36;101469.28;107099;1266;25341;-50
2023/07/23 05:48:03;;;;;;;4.10;3.80;;;;;;;28.72;49.03;101464.14;107132;1263;25481;-49
2023/07/23 05:50:30;;;;;;;4.30;4.00;;;;;;;28.84;48.34;101457.86;107011;1258;25402;-49
2023/07/23 05:52:57;;;;;;;4.50;4.10;;;;;;;28.96;48.10;101457.34;107085;1265;25489;-50
2023/07/23 05:55:25;;;;;;;4.90;3.70;;;;;;;29.07;47.25;101458.23;106968;1266;23893;-50
2023/07/23 05:57:51;;;;;;;4.80;4.40;;;;;;;29.14;46.49;101460.23;107054;1270;24392;-49
2023/07/23 06:00:18;;;;;;;4.50;4.10;;;;;;;29.24;46.22;101470.05;106916;1272;25366;-49
2023/07/23 06:02:45;;;;;;;4.60;4.20;;;;;;;29.39;46.28;101475.73;106916;1271;25364;-50
2023/07/23 06:05:12;;;;;;;4.80;4.30;;;;;;;29.52;46.20;101478.60;107005;1262;25343;-51
2023/07/23 06:07:39;;;;;;;4.20;3.90;;;;;;;29.62;46.07;101484.89;106852;1269;24254;-49
2023/07/23 06:10:07;;;;;;;4.60;4.20;;;;;;;29.69;45.88;101484.00;107035;1271;25324;-50
2023/07/23 06:12:34;;;;;;;4.10;3.70;;;;;;;29.77;45.79;101484.04;107078;1267;25353;-50
2023/07/23 06:15:02;;;;;;;6.00;4.40;;;;;;;29.86;45.44;101488.25;107043;1256;24488;-50
2023/07/23 06:17:29;;;;;;;4.30;4.00;;;;;;;29.91;45.32;101496.13;106984;1266;22774;-50
2023/07/23 06:19:56;;;;;;;4.40;4.10;;;;;;;29.97;45.23;101497.91;107124;1254;22772;-50
2023/07/23 06:22:24;;;;;;;4.50;4.10;;;;;;;30.04;44.78;101494.98;107107;1256;25392;-50
2023/07/23 06:24:51;;;;;;;4.20;3.90;;;;;;;30.11;44.88;101491.86;107187;1267;25343;-50
2023/07/23 06:27:18;;;;;;;4.20;3.80;;;;;;;30.15;44.80;101484.05;107108;1268;25338;-51
2023/07/23 06:29:45;;;;;;;4.10;3.80;;;;;;;30.19;44.72;101476.86;107116;1257;25344;-49
2023/07/23 06:32:12;;;;;;;3.90;3.60;;;;;;;30.23;44.65;101479.40;106432;1263;1002878;-49
2023/07/23 06:34:39;;;;;;;3.30;3.10;;;;;;;30.24;44.20;101479.52;107089;1262;25387;-50
2023/07/23 06:37:06;;;;;;;5.30;3.30;;;;;;;30.21;43.74;101479.07;106857;1273;25343;-49
2023/07/23 06:39:33;;;;;;;4.60;3.80;;;;;;;30.15;43.70;101478.00;107052;1267;25324;-49
2023/07/23 06:42:00;;;;;;;3.50;3.20;;;;;;;30.07;43.30;101476.95;107110;1263;25332;-49
2023/07/23 06:44:27;;;;;;;4.40;3.60;;;;;;;29.95;43.54;101482.02;107089;1265;23238;-49
2023/07/23 06:46:57;;;;;;;3.80;3.50;;;;;;;29.82;43.76;101485.22;107259;1261;25341;-48
2023/07/23 06:49:28;;;;;;;3.50;3.20;;;;;;;29.65;44.18;101481.52;107038;1262;22540;-49
2023/07/23 06:51:55;;;;;;;4.40;3.20;;;;;;;29.51;44.74;101488.55;107124;1262;25335;-50
2023/07/23 06:54:23;;;;;;;3.50;3.30;;;;;;;29.38;45.33;101483.45;107103;1262;25353;-50
2023/07/23 06:56:53;;;;;;;3.20;2.90;;;;;;;29.26;45.40;101478.16;107160;1266;25519;-50
2023/07/23 06:59:20;;;;;;;3.60;3.30;;;;;;;29.12;45.42;101478.48;107179;1266;25308;-50
2023/07/23 07:01:47;;;;;;;4.00;3.30;;;;;;;28.99;45.70;101479.06;107151;1266;25380;-50
2023/07/23 07:04:15;;;;;;;3.70;3.40;;;;;;;28.88;45.76;101478.06;107005;1255;25363;-50
2023/07/23 07:06:43;;;;;;;3.70;3.00;;;;;;;28.76;45.35;101485.34;107150;1262;22555;-50
2023/07/23 07:09:09;;;;;;;3.70;3.40;;;;;;;28.65;45.77;101483.61;107079;1263;25404;-50
2023/07/23 07:11:36;;;;;;;4.00;3.30;;;;;;;28.55;45.81;101495.05;107078;1265;25335;-49
2023/07/23 07:14:04;;;;;;;3.70;3.40;;;;;;;28.46;46.32;101502.38;107141;1266;25328;-49
2023/07/23 07:16:31;;;;;;;3.40;3.10;;;;;;;28.40;46.43;101506.79;107098;1254;25477;-49
2023/07/23 07:18:58;;;;;;;3.80;3.50;;;;;;;28.36;46.43;101514.30;107108;1259;25351;-51
2023/07/23 07:21:25;;;;;;;3.60;3.20;;;;;;;28.34;46.45;101518.64;107049;1259;25399;-48
2023/07/23 07:23:52;;;;;;;3.80;3.50;;;;;;;28.32;46.65;101521.95;106817;1267;25363;-48
2023/07/23 07:26:19;;;;;;;3.30;3.00;;;;;;;28.32;46.50;101526.11;107063;1268;22530;-49
2023/07/23 07:28:46;;;;;;;5.10;3.50;;;;;;;28.31;46.62;101522.26;107116;1266;25339;-49
2023/07/23 07:31:15;;;;;;;4.00;3.70;;;;;;;28.31;46.62;101530.11;107113;1268;25344;-50
2023/07/23 07:33:43;;;;;;;5.20;3.80;;;;;;;28.28;46.18;101530.67;106890;1266;25314;-49
2023/07/23 07:36:11;;;;;;;3.60;3.30;;;;;;;28.24;46.95;101526.40;107120;1270;25325;-50
2023/07/23 07:38:38;;;;;;;4.20;3.90;;;;;;;28.22;47.46;101526.96;106856;1256;25431;-50
2023/07/23 07:41:05;;;;;;;3.90;3.60;;;;;;;28.26;46.67;101532.48;106599;1269;25483;-49
2023/07/23 07:43:32;;;;;;;3.50;3.30;;;;;;;28.33;46.51;101532.63;107116;1252;25308;-50
2023/07/23 07:46:00;;;;;;;3.90;3.30;;;;;;;28.32;46.25;101527.02;107094;1265;25473;-50
2023/07/23 07:48:29;;;;;;;3.70;3.40;;;;;;;28.30;46.71;101526.04;107066;1260;25477;-49
2023/07/23 07:51:00;;;;;;;4.20;3.90;;;;;;;28.31;46.96;101530.30;107073;1265;25335;-50
2023/07/23 07:53:27;;;;;;;3.60;3.40;;;;;;;28.31;47.03;101533.15;107104;1265;22667;-49
2023/07/23 07:55:55;;;;;;;3.60;3.30;;;;;;;28.30;47.08;101536.95;106927;1267;312087;-50
2023/07/23 07:58:26;;;;;;;3.70;3.40;;;;;;;28.31;47.66;101541.91;107134;1257;25252;-50
2023/07/23 08:01:01;;;;;;;3.90;3.60;;;;;;;28.33;47.96;101544.01;107156;1267;25323;-49
2023/07/23 08:03:29;;;;;;;3.50;3.20;;;;;;;28.37;48.11;101541.96;107097;1265;24255;-49
2023/07/23 08:05:58;;;;;;;3.90;3.60;;;;;;;28.37;48.13;101537.09;107093;1253;22771;-49
2023/07/23 08:08:26;;;;;;;3.90;3.40;;;;;;;28.36;47.98;101534.35;106915;1266;25443;-49
2023/07/23 08:10:54;;;;;;;3.60;3.30;;;;;;;28.33;48.37;101531.36;107197;1256;25342;-49
2023/07/23 08:13:22;;;;;;;4.00;3.70;;;;;;;28.29;47.98;101535.66;107049;1256;25321;-49
2023/07/23 08:15:49;;;;;;;3.60;3.30;;;;;;;28.24;47.46;101542.80;106819;1275;25460;-49
2023/07/23 08:18:19;;;;;;;3.10;2.90;;;;;;;28.18;47.57;101552.23;107168;1265;25482;-50
2023/07/23 08:20:46;;;;;;;3.70;3.40;;;;;;;28.14;47.58;101555.06;107003;1256;25322;-49
2023/07/23 08:23:14;;;;;;;4.70;3.30;;;;;;;28.11;47.56;101553.75;107071;1271;25409;-49
2023/07/23 08:25:40;;;;;;;3.30;3.10;;;;;;;28.06;47.89;101547.73;106841;1260;25325;-49
2023/07/23 08:28:08;;;;;;;3.40;3.10;;;;;;;28.02;48.21;101549.69;106790;1275;25386;-50
2023/07/23 08:30:35;;;;;;;4.10;3.20;;;;;;;27.98;48.20;101545.02;106839;1269;25415;-49
2023/07/23 08:33:02;;;;;;;4.00;3.70;;;;;;;27.95;48.10;101540.25;107145;1267;24246;-50
2023/07/23 08:35:30;;;;;;;3.90;3.50;;;;;;;27.89;47.83;101537.15;106786;1270;25325;-50
2023/07/23 08:37:57;;;;;;;3.30;3.00;;;;;;;27.83;48.05;101541.23;107089;1266;25471;-49
2023/07/23 08:40:26;;;;;;;3.60;3.30;;;;;;;27.76;48.29;101545.91;106966;1269;25360;-50
2023/07/23 08:42:56;;;;;;;4.00;3.60;;;;;;;27.69;48.42;101545.02;107032;1261;25319;-49
2023/07/23 08:45:40;;;;;;;3.90;3.50;;;;;;;27.63;48.63;101540.23;106848;1267;25332;-50
2023/07/23 08:48:12;;;;;;;4.00;3.50;;;;;;;27.56;49.10;101546.83;107137;1267;25431;-50
2023/07/23 08:50:40;;;;;;;4.20;3.90;;;;;;;27.50;49.37;101552.49;107026;1270;25373;-49
2023/07/23 08:53:09;;;;;;;4.80;3.80;;;;;;;27.45;49.59;101560.39;107083;1263;25390;-50
2023/07/23 08:55:36;;;;;;;4.10;3.70;;;;;;;27.42;49.99;101562.09;107189;1256;22531;-49
2023/07/23 08:58:03;;;;;;;3.70;3.40;;;;;;;27.38;50.20;101561.63;106705;1273;25328;-49
2023/07/23 09:00:30;;;;;;;4.30;4.00;;;;;;;27.37;50.85;101564.58;106629;1275;25321;-50
2023/07/23 09:03:02;;;;;;;4.10;3.80;;;;;;;27.37;51.53;101570.59;106371;1273;22973;-50
2023/07/23 09:05:30;;;;;;;6.20;4.20;;;;;;;27.39;51.11;101569.58;106452;1272;25427;-50
2023/07/23 09:07:57;;;;;;;4.60;4.00;;;;;;;27.41;51.36;101568.88;106591;1276;25527;-49
2023/07/23 09:10:24;;;;;;;4.40;4.00;;;;;;;27.44;51.75;101565.67;106400;1275;25337;-50
2023/07/23 09:12:54;;;;;;;4.50;4.10;;;;;;;27.46;51.94;101561.95;106653;1274;25282;-50
2023/07/23 09:15:20;;;;;;;4.30;4.00;;;;;;;27.48;51.95;101565.69;106488;1268;25384;-50
2023/07/23 09:17:50;;;;;;;5.40;4.50;;;;;;;27.48;52.14;101566.73;106606;1274;25346;-50
2023/07/23 09:20:18;;;;;;;4.90;4.60;;;;;;;27.47;52.20;101572.85;106563;1270;25433;-50
2023/07/23 09:22:48;;;;;;;5.40;4.20;;;;;;;27.47;52.25;101576.98;106612;1262;25387;-50
2023/07/23 09:25:15;;;;;;;4.80;4.40;;;;;;;27.45;52.27;101580.68;106582;1274;25450;-50
2023/07/23 09:27:42;;;;;;;5.70;4.90;;;;;;;27.44;52.52;101579.52;106648;1271;25509;-50
2023/07/23 09:30:17;;;;;;;5.30;4.40;;;;;;;27.42;52.89;101566.13;106792;1274;25357;-49
2023/07/23 09:32:45;;;;;;;5.00;4.60;;;;;;;27.40;53.25;101558.98;106982;1267;22524;-50
2023/07/23 09:35:16;;;;;;;4.50;4.20;;;;;;;27.36;53.69;101548.73;106922;1257;25447;-49
2023/07/23 09:37:42;;;;;;;4.80;4.40;;;;;;;27.32;53.92;101549.63;106755;1261;25555;-50
2023/07/23 09:40:10;;;;;;;5.20;4.70;;;;;;;27.25;54.12;101555.14;106975;1266;25350;-49
2023/07/23 09:42:37;;;;;;;5.20;4.70;;;;;;;27.19;54.75;101554.58;106708;1254;25229;-49
2023/07/23 09:45:05;;;;;;;4.90;4.30;;;;;;;27.14;55.10;101555.48;107022;1257;25361;-51
2023/07/23 09:47:32;;;;;;;7.80;4.20;;;;;;;27.10;55.13;101559.23;107162;1256;25485;-50
2023/07/23 09:49:59;;;;;;;4.50;4.10;;;;;;;27.05;55.08;101560.16;106867;1271;25369;-50
2023/07/23 09:52:33;;;;;;;4.70;4.30;;;;;;;26.99;55.08;101554.33;106878;1267;24417;-50
2023/07/23 09:55:02;;;;;;;4.70;4.30;;;;;;;26.95;55.43;101552.70;107067;1257;25229;-50
2023/07/23 09:57:30;;;;;;;4.70;4.30;;;;;;;26.94;55.48;101545.53;106841;1263;25360;-50
2023/07/23 09:59:57;;;;;;;4.80;4.40;;;;;;;26.92;55.74;101540.39;107123;1264;25284;-50
2023/07/23 10:02:25;;;;;;;4.70;4.30;;;;;;;26.89;55.89;101533.77;107135;1257;25345;-50
2023/07/23 10:04:54;;;;;;;4.40;4.00;;;;;;;26.89;56.12;101528.59;107177;1264;25321;-50
2023/07/23 10:07:21;;;;;;;5.50;4.30;;;;;;;26.91;56.09;101527.42;107136;1263;24212;-50
2023/07/23 10:09:50;;;;;;;4.30;3.90;;;;;;;26.91;55.93;101528.14;106876;1267;25824;-50
2023/07/23 10:12:17;;;;;;;4.70;4.10;;;;;;;26.90;55.94;101528.02;107166;1266;23350;-50
2023/07/23 10:14:44;;;;;;;5.10;4.50;;;;;;;26.89;56.27;101539.11;107035;1256;22754;-50
2023/07/23 10:17:11;;;;;;;4.80;4.10;;;;;;;26.88;56.32;101548.10;107024;1255;22533;-50
2023/07/23 10:19:40;;;;;;;5.00;4.60;;;;;;;26.89;56.45;101552.49;106831;1257;25325;-50
2023/07/23 10:22:07;;;;;;;4.60;4.20;;;;;;;26.90;56.66;101563.98;107117;1263;22538;-50
2023/07/23 10:24:40;;;;;;;4.30;4.00;;;;;;;26.91;56.57;101572.80;107230;1269;25482;-50
2023/07/23 10:27:16;;;;;;;5.10;4.60;;;;;;;26.94;56.86;101575.27;107082;1251;25265;-50
2023/07/23 10:30:20;;;;;;;4.70;4.30;;;;;;;26.99;56.77;101574.52;107179;1264;25345;-50
2023/07/23 10:33:10;;;;;;;6.00;4.20;;;;;;;27.02;56.40;101568.73;107084;1267;25332;-50
2023/07/23 10:35:56;;;;;;;5.30;4.80;;;;;;;27.06;56.95;101561.45;107229;1266;25325;-49
2023/07/23 10:38:30;;;;;;;5.20;4.80;;;;;;;27.12;57.56;101559.54;107130;1257;22539;-52
2023/07/23 10:40:58;;;;;;;5.40;4.80;;;;;;;27.16;57.84;101549.10;107045;1255;25484;-49
2023/07/23 10:43:39;;;;;;;5.50;4.90;;;;;;;27.19;58.10;101545.27;106943;1262;23890;-49
2023/07/23 10:46:10;;;;;;;6.70;5.60;;;;;;;27.22;58.62;101541.30;107033;1258;25337;-49
2023/07/23 10:48:49;;;;;;;6.00;5.40;;;;;;;27.25;59.22;101551.60;107521;1261;25400;-49
2023/07/23 10:51:18;;;;;;;5.50;4.90;;;;;;;27.26;59.60;101564.48;106877;1270;22539;-50
2023/07/23 10:54:06;;;;;;;5.50;4.90;;;;;;;27.28;59.96;101566.65;107395;1254;25281;-50
2023/07/23 10:56:40;;;;;;;6.70;5.10;;;;;;;27.30;60.02;101566.48;107482;1267;25408;-50
2023/07/23 10:59:16;;;;;;;7.70;5.70;;;;;;;27.31;60.13;101564.45;106833;1264;22517;-54
2023/07/23 11:01:45;;;;;;;5.80;5.30;;;;;;;27.32;60.14;101563.84;107450;1273;25295;-50
2023/07/23 11:04:12;;;;;;;6.30;5.60;;;;;;;27.33;60.26;101572.13;106814;1260;25417;-49
2023/07/23 11:06:54;;;;;;;5.20;4.80;;;;;;;27.34;60.56;101583.65;106826;1264;25366;-49
2023/07/23 11:09:26;;;;;;;5.50;5.10;;;;;;;27.35;60.53;101588.95;106478;1257;22531;-48
2023/07/23 11:11:53;;;;;;;5.70;5.20;;;;;;;27.33;60.71;101594.06;106518;1257;25322;-49
2023/07/23 11:14:28;;;;;;;7.10;5.30;;;;;;;27.29;60.47;101588.66;107022;1274;25352;-49
2023/07/23 11:17:02;;;;;;;5.50;5.00;;;;;;;27.26;61.14;101593.74;106866;1270;25344;-49
2023/07/23 11:19:30;;;;;;;6.30;5.10;;;;;;;27.22;61.57;101594.58;107134;1251;22642;-49
2023/07/23 11:22:02;;;;;;;6.60;5.20;;;;;;;27.18;61.38;101597.37;107439;1257;25335;-49